TimePST,TemperatureF,Dew PointF,Humidity,Sea Level PressureIn,VisibilityMPH,Wind Direction,Wind SpeedMPH,Gust SpeedMPH,PrecipitationIn,Events,Conditions,WindDirDegrees,DateUTC
12:52 AM,35.1,30.9,85,29.84,-9999.0,West,36.8,49.5,0.02,,Unknown,280,2013-02-23 08:52:00
1:01 AM,28.4,26.6,93,29.82,-9999.0,WNW,31.1,49.5,N/A,,Unknown,290,2013-02-23 09:01:00
1:52 AM,28.0,25.0,88,29.89,-9999.0,West,4.6,-,0.05,,Unknown,270,2013-02-23 09:52:00
2:52 AM,28.9,21.9,75,29.91,-9999.0,NW,4.6,-,N/A,,Unknown,310,2013-02-23 10:52:00
3:52 AM,28.9,19.0,67,29.94,-9999.0,WNW,13.8,-,N/A,,Unknown,290,2013-02-23 11:52:00
4:52 AM,26.1,16.0,66,30.00,-9999.0,WNW,13.8,-,N/A,,Unknown,300,2013-02-23 12:52:00
5:52 AM,21.9,15.1,75,30.04,-9999.0,WNW,8.1,-,N/A,,Unknown,290,2013-02-23 13:52:00
6:52 AM,21.9,15.1,75,30.07,-9999.0,SW,8.1,-,N/A,,Unknown,230,2013-02-23 14:52:00
7:52 AM,28.0,17.1,63,30.09,-9999.0,WSW,6.9,-,N/A,,Unknown,240,2013-02-23 15:52:00
8:52 AM,28.9,17.1,61,30.10,-9999.0,West,12.7,24.2,N/A,,Unknown,280,2013-02-23 16:52:00
9:52 AM,30.0,17.1,59,30.10,-9999.0,West,18.4,27.6,N/A,,Unknown,270,2013-02-23 17:52:00
10:52 AM,33.1,19.0,56,30.09,-9999.0,West,24.2,32.2,N/A,,Unknown,280,2013-02-23 18:52:00
11:52 AM,35.1,21.0,57,30.09,-9999.0,West,23.0,36.8,N/A,,Unknown,270,2013-02-23 19:52:00
12:52 PM,36.0,19.9,52,30.09,-9999.0,West,19.6,27.6,N/A,,Unknown,270,2013-02-23 20:52:00
1:52 PM,37.0,17.1,44,30.11,-9999.0,WNW,21.9,29.9,N/A,,Unknown,300,2013-02-23 21:52:00
2:52 PM,37.9,16.0,41,30.10,-9999.0,WNW,26.5,35.7,N/A,,Unknown,300,2013-02-23 22:52:00
3:52 PM,37.0,14.0,39,30.13,-9999.0,WNW,21.9,33.4,N/A,,Unknown,290,2013-02-23 23:52:00
4:52 PM,36.0,15.1,43,30.16,-9999.0,West,16.1,24.2,N/A,,Unknown,280,2013-02-24 00:52:00
5:52 PM,30.9,18.0,59,30.21,-9999.0,West,10.4,-,N/A,,Unknown,280,2013-02-24 01:52:00
6:52 PM,28.0,19.9,72,30.25,-9999.0,SW,8.1,-,N/A,,Unknown,230,2013-02-24 02:52:00
7:52 PM,28.9,18.0,64,30.23,-9999.0,West,9.2,-,N/A,,Unknown,260,2013-02-24 03:52:00
8:52 PM,30.0,17.1,59,30.25,-9999.0,WNW,13.8,18.4,N/A,,Unknown,290,2013-02-24 04:52:00
9:52 PM,28.0,17.1,63,30.27,-9999.0,West,11.5,-,N/A,,Unknown,280,2013-02-24 05:52:00
10:52 PM,28.9,16.0,58,30.28,-9999.0,WNW,9.2,18.4,N/A,,Unknown,290,2013-02-24 06:52:00
11:52 PM,25.0,14.0,63,30.30,-9999.0,SW,3.5,-,N/A,,Unknown,220,2013-02-24 07:52:00